Joe Foss Field Airport
KFSD : now visible

Airfield :











YOU CAN JOIN US ON...

 
LOGIN :

Register | Disclaimer

   EN    FR    IT 

 









Legend :    VFR   Marginal VFR   IFR   Intensive IFR   Very Intensive IFR
Visi :
Ceiling :
>= 8 km
>= 3000ft
5 to 8 km
1000 to 3000 ft
1500m to 5 km
500 to 1000 ft
800 to 1500m
200 to 500 ft
< 800m
< 200 ft
Symbols :   Thunderstorms  Fog  Heavy snow  Heavy precipitations  Wind > 20 kt






- Airport Elevation : 1429 ft
- IATA code : FSD


KFSD - Joe Foss Field

CURRENT METAR :
  • 071556Z 01012KT 10SM BKN040 08/M03 A3057 RMK AO2 SLP364 T00781028

EXPIRED METARs :
  • 071456Z 36008KT 10SM FEW028 FEW043 07/M02 A3058 RMK AO2 SLP366 T00721017 51008
  • 071356Z 36008KT 10SM SCT043 05/M01 A3057 RMK AO2 SLP364 T00501006

TAF KFSD
Valid from the 07 at 12:00 until the 08 at 12:00 UTC


071120Z 0712/0812 01005KT P6SM SCT040
FM072000 32005KT P6SM SKC
KZMP FIR / North America



MET'MAP, your aeronautical weather chart ! - Copyright ORBIFLY December 2007 - Disclaimer

ORBIFLY MET'MAP TEAM :

Programming & Development : Alexandra Zaïnal
Original concept : Baudouin d'Aumeries
Technical & hardware support : Manuel Goepfert
Assistance : Marc-Olivier Méhu




SOURCES & CREDITS :

   NOAA       Earth
Advisory